Forside
METAR-TAF:

METAR-TAF

Lufthavne :

Port Macquarie, Australien

Breddekreds: 31-26-09S, længdekreds: 152-51-48E, højde: 5 m

Aktuelle vejr

Denne rapport blev lavet for 23 minutter siden, kl. 16:30 UTC
Vind 4 kt fra nordvest
Temperatur 17°C
Fugtighed 100%
Tryk 1013 hPa
Sigt: 4000 m
Brudte skyer i en højde af 600 ft

METAR: YPMQ 231630Z AUTO 32004KT 4000 // BKN006 17/17 Q1013

Tid: 03:53 (16:53 UTC)


TAF: fraværende

Vejrobservationer og prognoser fra mere end 4000 lufthavne (METAR og TAF).

De gule og røde prikker repræsenterer de meteorologiske stationer.

Flyt musen over at se navnet på stationen.

Så klik over at se vejr observationer og prognoser.

At skifte det kort: Klik på de grønne knapper med et sort kors for at zoome ind; på den grønne knap med en bindestreg for at zoome ud; eller på de grønne pile for tilstødende kort.


METAR-TAF: